Time,TemperatureF,DewpointF,PressureIn,WindDirection,WindDirectionDegrees,WindSpeedMPH,WindSpeedGustMPH,Humidity,HourlyPrecipIn,Conditions,Clouds,dailyrainin,SolarRadiationWatts/m^2,SoftwareType,DateUTC
2013-03-03 00:07:00,33.7,28.5,30.24,NW,313,0.0,0.0,81,0.00,,---,0.00,0.00,VWS V14.00,2013-03-03 06:07:00,
2013-03-03 00:15:00,34.1,28.9,30.24,NW,313,0.0,0.0,81,0.00,,---,0.00,0.00,VWS V14.00,2013-03-03 06:15:00,
2013-03-03 00:23:00,34.6,30.3,30.23,NW,313,0.0,3.0,84,0.00,,---,0.00,0.00,VWS V14.00,2013-03-03 06:23:00,
2013-03-03 00:31:00,33.9,29.0,30.23,NW,313,0.0,3.0,82,0.00,,---,0.00,0.00,VWS V14.00,2013-03-03 06:31:00,
2013-03-03 00:37:00,33.8,29.8,30.22,NW,313,0.0,3.0,85,0.00,,---,0.00,0.00,VWS V14.00,2013-03-03 06:37:00,
2013-03-03 00:43:00,34.1,30.1,30.22,NW,313,0.0,0.0,85,0.00,,---,0.00,0.00,VWS V14.00,2013-03-03 06:43:00,
2013-03-03 00:52:00,34.6,30.9,30.22,NW,313,0.0,0.0,86,0.00,,---,0.00,0.00,VWS V14.00,2013-03-03 06:52:00,
2013-03-03 01:00:00,35.8,32.6,30.22,NW,313,0.0,0.0,88,0.00,,---,0.00,0.00,VWS V14.00,2013-03-03 07:00:00,
2013-03-03 01:07:00,35.9,32.1,30.22,NW,313,0.0,0.0,86,0.00,,---,0.00,0.00,VWS V14.00,2013-03-03 07:07:00,
2013-03-03 01:12:00,35.9,32.1,30.22,NW,313,0.0,0.0,86,0.00,,---,0.00,0.00,VWS V14.00,2013-03-03 07:12:00,
2013-03-03 01:20:00,36.2,30.0,30.22,NW,313,0.0,0.0,78,0.00,,---,0.00,0.00,VWS V14.00,2013-03-03 07:20:00,
2013-03-03 01:28:00,35.4,30.8,30.21,NW,313,0.0,0.0,83,0.00,,---,0.00,0.00,VWS V14.00,2013-03-03 07:28:00,
2013-03-03 01:36:00,33.8,29.5,30.22,NW,313,0.0,0.0,84,0.00,,---,0.00,0.00,VWS V14.00,2013-03-03 07:36:00,
2013-03-03 01:44:00,33.2,28.9,30.22,NW,313,0.0,0.0,84,0.00,,---,0.00,0.00,VWS V14.00,2013-03-03 07:44:00,
2013-03-03 01:52:00,33.6,28.1,30.21,NW,313,0.0,0.0,80,0.00,,---,0.00,0.00,VWS V14.00,2013-03-03 07:52:00,
2013-03-03 02:00:00,33.6,28.4,30.21,NW,313,0.0,0.0,81,0.00,,---,0.00,0.00,VWS V14.00,2013-03-03 08:00:00,
2013-03-03 02:07:00,33.8,28.9,30.21,NW,313,0.0,0.0,82,0.00,,---,0.00,0.00,VWS V14.00,2013-03-03 08:07:00,
2013-03-03 02:12:00,33.9,28.7,30.21,NW,313,0.0,0.0,81,0.00,,---,0.00,0.00,VWS V14.00,2013-03-03 08:12:00,
2013-03-03 02:20:00,34.2,30.2,30.21,NW,313,0.0,0.0,85,0.00,,---,0.00,0.00,VWS V14.00,2013-03-03 08:20:00,
2013-03-03 02:28:00,33.2,28.3,30.20,NW,313,0.0,0.0,82,0.00,,---,0.00,0.00,VWS V14.00,2013-03-03 08:28:00,
2013-03-03 02:36:00,32.7,27.8,30.20,NW,313,0.0,0.0,82,0.00,,---,0.00,0.00,VWS V14.00,2013-03-03 08:36:00,
2013-03-03 02:44:00,32.7,27.2,30.20,NW,313,0.0,0.0,80,0.00,,---,0.00,0.00,VWS V14.00,2013-03-03 08:44:00,
2013-03-03 02:52:00,32.7,26.6,30.20,NW,313,0.0,0.0,78,0.00,,---,0.00,0.00,VWS V14.00,2013-03-03 08:52:00,
2013-03-03 03:01:00,33.3,28.1,30.20,NW,313,0.0,0.0,81,0.00,,---,0.00,0.00,VWS V14.00,2013-03-03 09:01:00,
2013-03-03 03:07:00,33.1,26.7,30.20,NW,313,0.0,0.0,77,0.00,,---,0.00,0.00,VWS V14.00,2013-03-03 09:07:00,
2013-03-03 03:13:00,33.3,27.5,30.20,NW,313,0.0,0.0,79,0.00,,---,0.00,0.00,VWS V14.00,2013-03-03 09:13:00,
2013-03-03 03:21:00,33.3,28.4,30.20,NW,313,0.0,0.0,82,0.00,,---,0.00,0.00,VWS V14.00,2013-03-03 09:21:00,
2013-03-03 03:29:00,33.4,29.4,30.20,NW,313,0.0,0.0,85,0.00,,---,0.00,0.00,VWS V14.00,2013-03-03 09:29:00,
2013-03-03 03:37:00,33.4,29.1,30.20,NW,313,0.0,0.0,84,0.00,,---,0.00,0.00,VWS V14.00,2013-03-03 09:37:00,
2013-03-03 03:45:00,32.5,28.2,30.20,NW,313,0.0,0.0,84,0.00,,---,0.00,0.00,VWS V14.00,2013-03-03 09:45:00,
2013-03-03 03:53:00,32.1,28.1,30.20,NW,313,0.0,0.0,85,0.00,,---,0.00,0.00,VWS V14.00,2013-03-03 09:53:00,
2013-03-03 04:01:00,32.2,28.5,30.20,NW,313,0.0,0.0,86,0.00,,---,0.00,0.00,VWS V14.00,2013-03-03 10:01:00,
2013-03-03 04:07:00,31.8,27.5,30.20,NW,313,0.0,0.0,84,0.00,,---,0.00,0.00,VWS V14.00,2013-03-03 10:07:00,
2013-03-03 04:13:00,31.2,26.6,30.20,NW,313,0.0,0.0,83,0.00,,---,0.00,0.00,VWS V14.00,2013-03-03 10:13:00,
2013-03-03 04:21:00,31.4,26.8,30.20,NW,313,0.0,0.0,83,0.00,,---,0.00,0.00,VWS V14.00,2013-03-03 10:21:00,
2013-03-03 04:29:00,31.2,26.6,30.20,NW,313,0.0,0.0,83,0.00,,---,0.00,0.00,VWS V14.00,2013-03-03 10:29:00,
2013-03-03 04:37:00,31.6,27.6,30.20,NW,313,0.0,0.0,85,0.00,,---,0.00,0.00,VWS V14.00,2013-03-03 10:37:00,
2013-03-03 04:46:00,32.4,29.0,30.20,NW,313,0.0,0.0,87,0.00,,---,0.00,0.00,VWS V14.00,2013-03-03 10:46:00,
2013-03-03 04:54:00,32.4,29.0,30.20,NW,313,0.0,0.0,87,0.00,,---,0.00,0.00,VWS V14.00,2013-03-03 10:54:00,
2013-03-03 05:02:00,32.7,28.1,30.20,SW,232,1.0,3.0,83,0.00,,---,0.00,0.00,VWS V14.00,2013-03-03 11:02:00,
2013-03-03 05:10:00,32.7,29.0,30.19,SW,232,0.0,1.0,86,0.00,,---,0.00,0.00,VWS V14.00,2013-03-03 11:10:00,
2013-03-03 05:18:00,32.9,29.5,30.19,SW,232,0.0,1.0,87,0.00,,---,0.00,0.00,VWS V14.00,2013-03-03 11:18:00,
2013-03-03 05:26:00,34.9,28.8,30.19,SSW,210,0.0,4.0,78,0.00,,---,0.00,0.00,VWS V14.00,2013-03-03 11:26:00,
2013-03-03 05:34:00,32.8,28.2,30.19,SSW,204,2.0,4.0,83,0.00,,---,0.00,0.00,VWS V14.00,2013-03-03 11:34:00,
2013-03-03 05:42:00,34.5,28.7,30.20,South,179,3.0,4.0,79,0.00,,---,0.00,0.00,VWS V14.00,2013-03-03 11:42:00,
2013-03-03 05:50:00,33.6,27.8,30.20,South,179,4.0,4.0,79,0.00,,---,0.00,0.00,VWS V14.00,2013-03-03 11:50:00,
2013-03-03 05:58:00,34.2,28.4,30.20,South,184,3.0,4.0,79,0.00,,---,0.00,0.00,VWS V14.00,2013-03-03 11:58:00,
2013-03-03 06:07:00,36.4,27.6,30.19,South,175,2.0,4.0,70,0.00,,---,0.00,0.00,VWS V14.00,2013-03-03 12:07:00,
2013-03-03 06:15:00,36.8,26.9,30.19,SSE,164,4.0,4.0,67,0.00,,---,0.00,0.00,VWS V14.00,2013-03-03 12:15:00,
2013-03-03 06:23:00,37.1,26.8,30.18,SE,146,4.0,5.0,66,0.00,,---,0.00,0.00,VWS V14.00,2013-03-03 12:23:00,
2013-03-03 06:31:00,36.9,26.6,30.18,South,186,2.0,5.0,66,0.00,,---,0.00,0.00,VWS V14.00,2013-03-03 12:31:00,
2013-03-03 06:37:00,36.6,28.1,30.19,SSW,194,2.0,5.0,71,0.00,,---,0.00,0.00,VWS V14.00,2013-03-03 12:37:00,
2013-03-03 06:43:00,36.2,26.7,30.19,South,184,6.0,6.0,68,0.00,,---,0.00,0.00,VWS V14.00,2013-03-03 12:43:00,
2013-03-03 06:51:00,36.4,26.9,30.19,South,178,4.0,6.0,68,0.00,,---,0.00,5.00,VWS V14.00,2013-03-03 12:51:00,
2013-03-03 06:59:00,36.5,27.3,30.19,South,175,4.0,6.0,69,0.00,,---,0.00,12.00,VWS V14.00,2013-03-03 12:59:00,
2013-03-03 07:07:00,36.7,27.1,30.19,South,186,7.0,8.0,68,0.00,,---,0.00,25.00,VWS V14.00,2013-03-03 13:07:00,
2013-03-03 07:15:00,36.8,27.6,30.19,South,179,5.0,6.0,69,0.00,,---,0.00,26.00,VWS V14.00,2013-03-03 13:15:00,
2013-03-03 07:23:00,36.7,26.8,30.19,South,177,3.0,6.0,67,0.00,,---,0.00,25.00,VWS V14.00,2013-03-03 13:23:00,
2013-03-03 07:31:00,36.9,27.3,30.19,South,173,5.0,7.0,68,0.00,,---,0.00,86.00,VWS V14.00,2013-03-03 13:31:00,
2013-03-03 07:37:00,37.1,27.2,30.19,South,183,4.0,7.0,67,0.00,,---,0.00,109.00,VWS V14.00,2013-03-03 13:37:00,
2013-03-03 07:44:00,37.5,28.3,30.19,South,180,6.0,9.0,69,0.00,,---,0.00,141.00,VWS V14.00,2013-03-03 13:44:00,
2013-03-03 07:52:00,38.2,27.9,30.19,South,175,3.0,9.0,66,0.00,,---,0.00,169.00,VWS V14.00,2013-03-03 13:52:00,
2013-03-03 08:00:00,39.0,28.6,30.19,South,177,5.0,9.0,66,0.00,,---,0.00,197.00,VWS V14.00,2013-03-03 14:00:00,
2013-03-03 08:07:00,39.8,29.4,30.20,South,169,6.0,9.0,66,0.00,,---,0.00,221.00,VWS V14.00,2013-03-03 14:07:00,
2013-03-03 08:12:00,40.4,29.6,30.20,South,186,4.0,10.0,65,0.00,,---,0.00,239.00,VWS V14.00,2013-03-03 14:12:00,
2013-03-03 08:20:00,41.2,30.7,30.20,South,177,6.0,10.0,66,0.00,,---,0.00,267.00,VWS V14.00,2013-03-03 14:20:00,
2013-03-03 08:28:00,41.9,30.6,30.20,South,182,5.0,12.0,64,0.00,,---,0.00,294.00,VWS V14.00,2013-03-03 14:28:00,
2013-03-03 08:36:00,42.9,30.8,30.20,SSE,163,9.0,12.0,62,0.00,,---,0.00,323.00,VWS V14.00,2013-03-03 14:36:00,
2013-03-03 08:44:00,43.4,30.9,30.20,SSE,163,11.0,11.0,61,0.00,,---,0.00,350.00,VWS V14.00,2013-03-03 14:44:00,
2013-03-03 08:52:00,43.8,29.1,30.20,SSE,156,9.0,11.0,56,0.00,,---,0.00,380.00,VWS V14.00,2013-03-03 14:52:00,
2013-03-03 09:00:00,44.6,29.9,30.20,SSE,160,10.0,13.0,56,0.00,,---,0.00,408.00,VWS V14.00,2013-03-03 15:00:00,
2013-03-03 09:08:00,45.2,30.0,30.19,South,172,6.0,13.0,55,0.00,,---,0.00,429.00,VWS V14.00,2013-03-03 15:08:00,
2013-03-03 09:37:00,48.8,30.5,30.18,SSW,196,8.0,12.0,49,0.00,,---,0.00,524.00,VWS V14.00,2013-03-03 15:37:00,
2013-03-03 09:46:00,49.5,30.1,30.18,SSE,164,10.0,15.0,47,0.00,,---,0.00,548.00,VWS V14.00,2013-03-03 15:46:00,
2013-03-03 10:12:00,52.3,29.9,30.17,South,171,7.0,13.0,42,0.00,,---,0.00,615.00,VWS V14.00,2013-03-03 16:12:00,
2013-03-03 10:20:00,53.3,32.0,30.17,SSE,165,14.0,14.0,44,0.00,,---,0.00,638.00,VWS V14.00,2013-03-03 16:20:00,
2013-03-03 10:28:00,53.0,31.7,30.16,SSE,159,9.0,14.0,44,0.00,,---,0.00,656.00,VWS V14.00,2013-03-03 16:28:00,
2013-03-03 10:36:00,53.4,30.9,30.15,South,190,12.0,15.0,42,0.00,,---,0.00,671.00,VWS V14.00,2013-03-03 16:36:00,
2013-03-03 10:44:00,54.4,30.6,30.15,South,171,6.0,15.0,40,0.00,,---,0.00,689.00,VWS V14.00,2013-03-03 16:44:00,
2013-03-03 10:52:00,55.0,31.1,30.15,SSE,158,12.0,15.0,40,0.00,,---,0.00,703.00,VWS V14.00,2013-03-03 16:52:00,
2013-03-03 11:00:00,55.4,31.5,30.15,SSE,167,12.0,15.0,40,0.00,,---,0.00,717.00,VWS V14.00,2013-03-03 17:00:00,
2013-03-03 11:07:00,56.8,33.4,30.14,South,189,9.0,15.0,41,0.00,,---,0.00,731.00,VWS V14.00,2013-03-03 17:07:00,
2013-03-03 11:12:00,57.0,32.3,30.14,South,180,8.0,14.0,39,0.00,,---,0.00,738.00,VWS V14.00,2013-03-03 17:12:00,
2013-03-03 11:20:00,57.2,31.2,30.14,South,178,8.0,15.0,37,0.00,,---,0.00,751.00,VWS V14.00,2013-03-03 17:20:00,
2013-03-03 11:28:00,59.0,32.1,30.13,SW,221,5.0,15.0,36,0.00,,---,0.00,759.00,VWS V14.00,2013-03-03 17:28:00,
2013-03-03 11:36:00,59.3,33.0,30.12,South,185,6.0,15.0,37,0.00,,---,0.00,770.00,VWS V14.00,2013-03-03 17:36:00,
2013-03-03 11:45:00,59.3,33.0,30.12,South,173,7.0,16.0,37,0.00,,---,0.00,775.00,VWS V14.00,2013-03-03 17:45:00,
2013-03-03 11:53:00,60.0,33.0,30.10,South,184,10.0,16.0,36,0.00,,---,0.00,786.00,VWS V14.00,2013-03-03 17:53:00,
2013-03-03 12:01:00,60.0,33.0,30.10,South,188,6.0,16.0,36,0.00,,---,0.00,793.00,VWS V14.00,2013-03-03 18:01:00,
2013-03-03 12:07:00,60.5,33.4,30.09,SW,217,9.0,16.0,36,0.00,,---,0.00,795.00,VWS V14.00,2013-03-03 18:07:00,
2013-03-03 12:13:00,61.3,34.8,30.09,SSW,207,13.0,13.0,37,0.00,,---,0.00,798.00,VWS V14.00,2013-03-03 18:13:00,
2013-03-03 12:21:00,61.5,32.2,30.09,South,187,9.0,18.0,33,0.00,,---,0.00,802.00,VWS V14.00,2013-03-03 18:21:00,
2013-03-03 12:29:00,61.9,36.0,30.07,SSW,198,10.0,18.0,38,0.00,,---,0.00,805.00,VWS V14.00,2013-03-03 18:29:00,
2013-03-03 12:37:00,62.0,34.1,30.06,South,175,11.0,18.0,35,0.00,,---,0.00,803.00,VWS V14.00,2013-03-03 18:37:00,
2013-03-03 12:45:00,62.6,34.6,30.06,South,176,12.0,15.0,35,0.00,,---,0.00,805.00,VWS V14.00,2013-03-03 18:45:00,
2013-03-03 12:53:00,63.3,34.5,30.04,SSE,163,12.0,15.0,34,0.00,,---,0.00,802.00,VWS V14.00,2013-03-03 18:53:00,
2013-03-03 13:01:00,63.1,32.8,30.04,SSE,168,7.0,15.0,32,0.00,,---,0.00,800.00,VWS V14.00,2013-03-03 19:01:00,
2013-03-03 13:07:00,63.2,32.1,30.03,South,178,18.0,18.0,31,0.00,,---,0.00,798.00,VWS V14.00,2013-03-03 19:07:00,
2013-03-03 13:14:00,64.0,36.5,30.03,South,184,9.0,18.0,36,0.00,,---,0.00,800.00,VWS V14.00,2013-03-03 19:14:00,
2013-03-03 13:22:00,64.5,35.5,30.02,South,173,9.0,18.0,34,0.00,,---,0.00,773.00,VWS V14.00,2013-03-03 19:22:00,
2013-03-03 13:30:00,65.1,35.3,30.02,SSW,197,11.0,18.0,33,0.00,,---,0.00,751.00,VWS V14.00,2013-03-03 19:30:00,
2013-03-03 13:37:00,65.5,35.7,30.02,SE,141,6.0,18.0,33,0.00,,---,0.00,745.00,VWS V14.00,2013-03-03 19:37:00,
2013-03-03 13:42:00,65.6,36.5,30.02,South,171,5.0,9.0,34,0.00,,---,0.00,817.00,VWS V14.00,2013-03-03 19:42:00,
2013-03-03 13:50:00,65.5,34.9,30.02,SSW,207,6.0,12.0,32,0.00,,---,0.00,758.00,VWS V14.00,2013-03-03 19:50:00,
2013-03-03 13:58:00,65.1,35.3,30.00,SSE,162,13.0,17.0,33,0.00,,---,0.00,745.00,VWS V14.00,2013-03-03 19:58:00,
2013-03-03 14:06:00,66.1,36.2,30.00,WSW,237,11.0,17.0,33,0.00,,---,0.00,735.00,VWS V14.00,2013-03-03 20:06:00,
2013-03-03 14:14:00,65.7,35.8,29.98,South,174,14.0,15.0,33,0.00,,---,0.00,724.00,VWS V14.00,2013-03-03 20:14:00,
2013-03-03 14:22:00,65.6,35.0,29.98,South,173,12.0,15.0,32,0.00,,---,0.00,708.00,VWS V14.00,2013-03-03 20:22:00,
2013-03-03 14:30:00,66.5,35.8,29.98,SSW,200,7.0,15.0,32,0.00,,---,0.00,708.00,VWS V14.00,2013-03-03 20:30:00,
2013-03-03 14:37:00,67.0,36.2,29.97,South,191,12.0,17.0,32,0.00,,---,0.00,617.00,VWS V14.00,2013-03-03 20:37:00,
2013-03-03 14:43:00,66.1,35.4,29.97,South,179,7.0,19.0,32,0.00,,---,0.00,443.00,VWS V14.00,2013-03-03 20:43:00,
2013-03-03 14:51:00,66.1,36.9,29.97,South,182,7.0,19.0,34,0.00,,---,0.00,540.00,VWS V14.00,2013-03-03 20:51:00,
2013-03-03 14:59:00,67.3,36.5,29.96,South,185,5.0,19.0,32,0.00,,---,0.00,422.00,VWS V14.00,2013-03-03 20:59:00,
2013-03-03 15:07:00,65.8,35.9,29.94,South,169,12.0,19.0,33,0.00,,---,0.00,380.00,VWS V14.00,2013-03-03 21:07:00,
2013-03-03 15:15:00,67.1,35.5,29.94,South,183,8.0,16.0,31,0.00,,---,0.00,589.00,VWS V14.00,2013-03-03 21:15:00,
2013-03-03 15:23:00,66.2,35.5,29.94,South,182,13.0,17.0,32,0.00,,---,0.00,246.00,VWS V14.00,2013-03-03 21:23:00,
2013-03-03 15:31:00,66.3,34.8,29.94,SSW,200,9.0,17.0,31,0.00,,---,0.00,262.00,VWS V14.00,2013-03-03 21:31:00,
2013-03-03 15:37:00,66.8,35.2,29.93,South,175,10.0,17.0,31,0.00,,---,0.00,675.00,VWS V14.00,2013-03-03 21:37:00,
2013-03-03 15:43:00,66.4,36.5,29.93,South,189,11.0,17.0,33,0.00,,---,0.00,190.00,VWS V14.00,2013-03-03 21:43:00,
2013-03-03 15:51:00,66.7,35.9,29.93,South,186,11.0,17.0,32,0.00,,---,0.00,378.00,VWS V14.00,2013-03-03 21:51:00,
2013-03-03 16:00:00,67.2,37.9,29.93,South,182,15.0,17.0,34,0.00,,---,0.00,172.00,VWS V14.00,2013-03-03 22:00:00,
2013-03-03 16:07:00,66.9,36.9,29.92,South,178,7.0,17.0,33,0.00,,---,0.00,441.00,VWS V14.00,2013-03-03 22:07:00,
2013-03-03 16:16:00,66.8,36.0,29.92,South,174,18.0,18.0,32,0.00,,---,0.00,431.00,VWS V14.00,2013-03-03 22:16:00,
2013-03-03 16:24:00,66.9,35.3,29.92,South,175,16.0,18.0,31,0.00,,---,0.00,367.00,VWS V14.00,2013-03-03 22:24:00,
2013-03-03 16:32:00,67.2,35.6,29.92,South,191,11.0,18.0,31,0.00,,---,0.00,338.00,VWS V14.00,2013-03-03 22:32:00,
2013-03-03 16:40:00,67.0,35.4,29.92,South,186,10.0,15.0,31,0.00,,---,0.00,244.00,VWS V14.00,2013-03-03 22:40:00,
2013-03-03 16:48:00,66.9,36.9,29.92,South,184,9.0,15.0,33,0.00,,---,0.00,218.00,VWS V14.00,2013-03-03 22:48:00,
2013-03-03 16:56:00,66.5,35.8,29.91,South,174,14.0,15.0,32,0.00,,---,0.00,151.00,VWS V14.00,2013-03-03 22:56:00,
2013-03-03 17:04:00,65.5,36.4,29.91,South,184,15.0,15.0,34,0.00,,---,0.00,151.00,VWS V14.00,2013-03-03 23:04:00,
2013-03-03 17:13:00,66.1,35.4,29.90,South,178,15.0,17.0,32,0.00,,---,0.00,179.00,VWS V14.00,2013-03-03 23:13:00,
2013-03-03 17:21:00,66.2,34.7,29.90,South,175,12.0,18.0,31,0.00,,---,0.00,109.00,VWS V14.00,2013-03-03 23:21:00,
2013-03-03 17:29:00,65.8,36.7,29.89,SSE,157,13.0,18.0,34,0.00,,---,0.00,88.00,VWS V14.00,2013-03-03 23:29:00,
2013-03-03 17:37:00,65.7,35.1,29.89,South,183,11.0,18.0,32,0.00,,---,0.00,74.00,VWS V14.00,2013-03-03 23:37:00,
2013-03-03 17:45:00,65.0,34.5,29.89,South,188,7.0,14.0,32,0.00,,---,0.00,53.00,VWS V14.00,2013-03-03 23:45:00,
2013-03-03 17:53:00,64.5,36.3,29.90,South,171,6.0,14.0,35,0.00,,---,0.00,44.00,VWS V14.00,2013-03-03 23:53:00,
2013-03-03 18:01:00,64.1,36.6,29.90,South,176,6.0,14.0,36,0.00,,---,0.00,26.00,VWS V14.00,2013-03-04 00:01:00,
2013-03-03 18:07:00,64.1,35.9,29.90,South,171,13.0,14.0,35,0.00,,---,0.00,16.00,VWS V14.00,2013-03-04 00:07:00,
2013-03-03 18:13:00,64.0,36.5,29.90,SSW,196,10.0,16.0,36,0.00,,---,0.00,12.00,VWS V14.00,2013-03-04 00:13:00,
2013-03-03 18:21:00,63.4,34.6,29.90,SSE,166,8.0,16.0,34,0.00,,---,0.00,0.00,VWS V14.00,2013-03-04 00:21:00,
2013-03-03 18:29:00,63.0,36.3,29.90,South,180,9.0,16.0,37,0.00,,---,0.00,0.00,VWS V14.00,2013-03-04 00:29:00,
2013-03-03 18:37:00,62.6,36.0,29.90,South,170,9.0,16.0,37,0.00,,---,0.00,0.00,VWS V14.00,2013-03-04 00:37:00,
2013-03-03 18:46:00,62.1,35.5,29.90,South,174,7.0,10.0,37,0.00,,---,0.00,0.00,VWS V14.00,2013-03-04 00:46:00,
2013-03-03 18:54:00,62.1,35.5,29.89,South,173,11.0,12.0,37,0.00,,---,0.00,0.00,VWS V14.00,2013-03-04 00:54:00,
2013-03-03 19:02:00,62.2,35.6,29.89,South,178,8.0,15.0,37,0.00,,---,0.00,0.00,VWS V14.00,2013-03-04 01:02:00,
2013-03-03 19:07:00,61.9,36.7,29.90,South,179,7.0,15.0,39,0.00,,---,0.00,0.00,VWS V14.00,2013-03-04 01:07:00,
2013-03-03 19:14:00,61.4,36.2,29.90,SSE,166,10.0,13.0,39,0.00,,---,0.00,0.00,VWS V14.00,2013-03-04 01:14:00,
2013-03-03 19:22:00,61.1,36.0,29.89,SSE,163,12.0,13.0,39,0.00,,---,0.00,0.00,VWS V14.00,2013-03-04 01:22:00,
2013-03-03 19:30:00,60.9,35.8,29.89,SSE,167,7.0,13.0,39,0.00,,---,0.00,0.00,VWS V14.00,2013-03-04 01:30:00,
2013-03-03 19:37:00,60.5,36.7,29.88,SSE,165,8.0,13.0,41,0.00,,---,0.00,0.00,VWS V14.00,2013-03-04 01:37:00,
2013-03-03 19:43:00,60.5,37.3,29.88,SSE,163,8.0,10.0,42,0.00,,---,0.00,0.00,VWS V14.00,2013-03-04 01:43:00,
2013-03-03 19:51:00,60.2,36.4,29.88,SSE,157,9.0,11.0,41,0.00,,---,0.00,0.00,VWS V14.00,2013-03-04 01:51:00,
2013-03-03 19:59:00,59.9,36.2,29.87,SSE,160,11.0,12.0,41,0.00,,---,0.00,0.00,VWS V14.00,2013-03-04 01:59:00,
2013-03-03 20:07:00,59.8,36.1,29.87,SSE,159,10.0,12.0,41,0.00,,---,0.00,0.00,VWS V14.00,2013-03-04 02:07:00,
2013-03-03 20:15:00,59.4,37.5,29.87,SSE,153,10.0,10.0,44,0.00,,---,0.00,0.00,VWS V14.00,2013-03-04 02:15:00,
2013-03-03 20:23:00,59.5,36.4,29.86,SSE,152,10.0,12.0,42,0.00,,---,0.00,0.00,VWS V14.00,2013-03-04 02:23:00,
2013-03-03 20:31:00,59.5,36.4,29.86,SSE,150,12.0,13.0,42,0.00,,---,0.00,0.00,VWS V14.00,2013-03-04 02:31:00,
2013-03-03 20:37:00,59.3,38.0,29.86,SSE,167,6.0,13.0,45,0.00,,---,0.00,0.00,VWS V14.00,2013-03-04 02:37:00,
2013-03-03 20:43:00,59.1,36.7,29.86,South,169,7.0,14.0,43,0.00,,---,0.00,0.00,VWS V14.00,2013-03-04 02:43:00,
2013-03-03 20:51:00,59.4,37.5,29.87,SSE,157,10.0,14.0,44,0.00,,---,0.00,0.00,VWS V14.00,2013-03-04 02:51:00,
2013-03-03 20:59:00,59.7,37.2,29.87,SSE,148,14.0,17.0,43,0.00,,---,0.00,0.00,VWS V14.00,2013-03-04 02:59:00,
2013-03-03 21:07:00,59.6,37.7,29.86,SSE,150,9.0,17.0,44,0.00,,---,0.00,0.00,VWS V14.00,2013-03-04 03:07:00,
2013-03-03 21:16:00,59.8,37.9,29.86,SSE,167,7.0,13.0,44,0.00,,---,0.00,0.00,VWS V14.00,2013-03-04 03:16:00,
2013-03-03 21:24:00,59.4,37.5,29.86,SSE,165,13.0,13.0,44,0.00,,---,0.00,0.00,VWS V14.00,2013-03-04 03:24:00,
2013-03-03 21:32:00,59.3,37.4,29.86,SSE,165,11.0,13.0,44,0.00,,---,0.00,0.00,VWS V14.00,2013-03-04 03:32:00,
2013-03-03 21:37:00,59.5,37.6,29.86,SSE,156,10.0,13.0,44,0.00,,---,0.00,0.00,VWS V14.00,2013-03-04 03:37:00,
2013-03-03 21:44:00,59.6,37.7,29.86,SSE,164,12.0,15.0,44,0.00,,---,0.00,0.00,VWS V14.00,2013-03-04 03:44:00,
2013-03-03 21:52:00,59.5,38.7,29.86,South,180,11.0,15.0,46,0.00,,---,0.00,0.00,VWS V14.00,2013-03-04 03:52:00,
2013-03-03 22:00:00,59.5,38.7,29.86,South,182,13.0,16.0,46,0.00,,---,0.00,0.00,VWS V14.00,2013-03-04 04:00:00,
2013-03-03 22:08:00,59.5,38.7,29.86,SSE,157,15.0,16.0,46,0.00,,---,0.00,0.00,VWS V14.00,2013-03-04 04:08:00,
2013-03-03 22:17:00,59.4,39.2,29.86,South,174,11.0,18.0,47,0.00,,---,0.00,0.00,VWS V14.00,2013-03-04 04:17:00,
2013-03-03 22:25:00,59.3,38.5,29.85,South,184,12.0,18.0,46,0.00,,---,0.00,0.00,VWS V14.00,2013-03-04 04:25:00,
2013-03-03 22:33:00,59.1,38.9,29.85,South,173,13.0,20.0,47,0.00,,---,0.00,0.00,VWS V14.00,2013-03-04 04:33:00,
2013-03-03 22:41:00,59.3,39.6,29.84,South,177,11.0,20.0,48,0.00,,---,0.00,0.00,VWS V14.00,2013-03-04 04:41:00,
2013-03-03 22:49:00,59.1,40.0,29.84,South,175,14.0,20.0,49,0.00,,---,0.00,0.00,VWS V14.00,2013-03-04 04:49:00,
2013-03-03 22:57:00,58.7,40.1,29.84,SSE,165,13.0,20.0,50,0.00,,---,0.00,0.00,VWS V14.00,2013-03-04 04:57:00,
2013-03-03 23:01:00,58.6,40.5,29.84,SSE,155,10.0,20.0,51,0.00,,---,0.00,0.00,VWS V14.00,2013-03-04 05:01:00,
2013-03-03 23:05:00,58.5,39.9,29.84,SSE,158,13.0,20.0,50,0.00,,---,0.00,0.00,VWS V14.00,2013-03-04 05:05:00,
2013-03-03 23:08:00,58.5,40.5,29.84,South,171,11.0,20.0,51,0.00,,---,0.00,0.00,VWS V14.00,2013-03-04 05:08:00,
2013-03-03 23:13:00,58.2,40.7,29.84,South,177,9.0,16.0,52,0.00,,---,0.00,0.00,VWS V14.00,2013-03-04 05:13:00,
2013-03-03 23:22:00,58.0,39.5,29.83,SSE,153,11.0,16.0,50,0.00,,---,0.00,0.00,VWS V14.00,2013-03-04 05:22:00,
2013-03-03 23:30:00,57.8,39.8,29.83,SSE,161,12.0,16.0,51,0.00,,---,0.00,0.00,VWS V14.00,2013-03-04 05:30:00,
2013-03-03 23:37:00,57.6,39.6,29.83,South,172,12.0,17.0,51,0.00,,---,0.00,0.00,VWS V14.00,2013-03-04 05:37:00,
2013-03-03 23:46:00,57.3,40.3,29.83,South,173,8.0,13.0,53,0.00,,---,0.00,0.00,VWS V14.00,2013-03-04 05:46:00,
2013-03-03 23:54:00,57.2,40.7,29.83,South,184,10.0,16.0,54,0.00,,---,0.00,0.00,VWS V14.00,2013-03-04 05:54:00,